Time;durP1;ratioP1;P1;durP2;ratioP2;P2;SDS_P1;SDS_P2;PMS_P1;PMS_P2;Temp;Humidity;BMP_temperature;BMP_pressure;BME280_temperature;BME280_humidity;BME280_pressure;Samples;Min_cycle;Max_cycle;Signal;HPM_P1;HPM_P2
2024/04/16 00:01:45;;;;;;;14.93;2.80;;;;;;;7.63;87.31;100772.97;5447647;26;20031;-59
2024/04/16 00:04:13;;;;;;;10.98;2.65;;;;;;;7.61;87.36;100786.28;5448111;26;20007;-59
2024/04/16 00:06:41;;;;;;;17.50;3.22;;;;;;;7.58;87.62;100800.69;5416536;26;20025;-58
2024/04/16 00:09:09;;;;;;;12.25;2.30;;;;;;;7.58;87.50;100795.19;5451574;26;20821;-59
2024/04/16 00:11:38;;;;;;;13.68;3.50;;;;;;;7.59;87.73;100809.78;5394169;26;20531;-59
2024/04/16 00:14:05;;;;;;;15.13;2.75;;;;;;;7.58;87.82;100797.94;5447053;26;20014;-57
2024/04/16 00:16:33;;;;;;;14.93;2.58;;;;;;;7.58;87.74;100800.69;5446500;26;20015;-59
2024/04/16 00:19:00;;;;;;;14.05;2.38;;;;;;;7.55;87.94;100817.88;5447755;26;20014;-59
2024/04/16 00:21:29;;;;;;;18.63;4.40;;;;;;;7.54;87.81;100813.50;5446623;26;19999;-58
2024/04/16 00:23:56;;;;;;;7.20;3.03;;;;;;;7.52;88.21;100804.75;5447475;26;20092;-59
2024/04/16 00:26:26;;;;;;;11.93;2.90;;;;;;;7.47;88.02;100802.16;5447931;26;20081;-57
2024/04/16 00:28:53;;;;;;;9.88;3.47;;;;;;;7.46;88.55;100813.50;5447580;26;20003;-58
2024/04/16 00:31:21;;;;;;;9.80;2.42;;;;;;;7.43;88.36;100816.91;5447707;26;20490;-58
2024/04/16 00:33:48;;;;;;;14.95;2.80;;;;;;;7.43;88.43;100823.22;5472119;26;20002;-59
2024/04/16 00:36:16;;;;;;;19.55;2.83;;;;;;;7.41;88.33;100831.00;5393865;26;20399;-59
2024/04/16 00:38:43;;;;;;;15.85;3.38;;;;;;;7.40;88.43;100829.38;5411458;26;20007;-60
2024/04/16 00:41:11;;;;;;;15.10;2.35;;;;;;;7.36;88.88;100822.88;5430485;26;20003;-59
2024/04/16 00:43:38;;;;;;;14.27;2.33;;;;;;;7.39;88.55;100837.97;5447485;26;20002;-60
2024/04/16 00:46:07;;;;;;;12.35;2.30;;;;;;;7.38;88.87;100839.91;5447243;26;20543;-60
2024/04/16 00:48:35;;;;;;;17.35;3.22;;;;;;;7.37;89.36;100832.75;5447571;26;20007;-58
2024/04/16 00:51:02;;;;;;;16.25;2.97;;;;;;;7.34;89.01;100830.66;5447345;26;20040;-60
2024/04/16 00:53:30;;;;;;;8.65;2.22;;;;;;;7.34;89.27;100828.72;5446991;26;20456;-59
2024/04/16 00:55:57;;;;;;;9.73;2.55;;;;;;;7.34;89.13;100823.19;5446824;26;20022;-56
2024/04/16 00:58:27;;;;;;;12.55;2.65;;;;;;;7.33;89.28;100829.03;5446565;26;20013;-59
2024/04/16 01:00:55;;;;;;;12.07;3.92;;;;;;;7.31;88.80;100820.28;5415592;26;20469;-59
2024/04/16 01:03:22;;;;;;;11.43;2.85;;;;;;;7.30;88.92;100821.41;5446635;26;20048;-58
2024/04/16 01:05:51;;;;;;;11.45;3.70;;;;;;;7.28;89.27;100820.94;5446442;26;19999;-59
2024/04/16 01:08:19;;;;;;;12.15;3.55;;;;;;;7.27;89.13;100822.06;5446888;26;20006;-57
2024/04/16 01:10:46;;;;;;;14.63;2.45;;;;;;;7.28;89.29;100826.44;5416066;26;20017;-58
2024/04/16 01:13:14;;;;;;;17.92;3.75;;;;;;;7.25;89.29;100829.84;5446410;26;20147;-59
2024/04/16 01:15:42;;;;;;;10.32;2.15;;;;;;;7.23;89.13;100826.56;5446485;26;20018;-59
2024/04/16 01:18:09;;;;;;;19.33;4.10;;;;;;;7.20;89.18;100832.75;5446469;26;20011;-58
2024/04/16 01:20:38;;;;;;;23.10;3.90;;;;;;;7.17;89.46;100830.63;5446371;26;20449;-58
2024/04/16 01:23:05;;;;;;;10.80;2.53;;;;;;;7.15;89.70;100824.59;5446259;26;20017;-59
2024/04/16 01:25:35;;;;;;;20.20;2.97;;;;;;;7.14;89.58;100826.56;5442701;26;20056;-60
2024/04/16 01:28:03;;;;;;;18.65;4.63;;;;;;;7.13;89.88;100818.63;5411731;26;20007;-58
2024/04/16 01:30:31;;;;;;;13.20;2.00;;;;;;;7.13;89.87;100818.63;5444821;26;20336;-58
2024/04/16 01:32:58;;;;;;;17.73;3.35;;;;;;;7.13;90.23;100829.63;5458934;26;20017;-61
2024/04/16 01:35:26;;;;;;;15.38;2.72;;;;;;;7.16;89.96;100821.56;5451129;26;20003;-57
2024/04/16 01:37:53;;;;;;;13.65;2.15;;;;;;;7.18;90.37;100840.50;5414757;26;20046;-55
2024/04/16 01:40:21;;;;;;;11.40;2.63;;;;;;;7.22;90.36;100841.50;5414421;26;20021;-58
2024/04/16 01:42:48;;;;;;;19.15;2.80;;;;;;;7.26;90.05;100839.69;5414835;26;20003;-59
2024/04/16 01:45:16;;;;;;;11.13;1.83;;;;;;;7.30;90.12;100835.19;5466081;26;20010;-59
2024/04/16 01:47:43;;;;;;;10.35;3.55;;;;;;;7.34;90.18;100836.16;5445721;26;20006;-60
2024/04/16 01:50:11;;;;;;;14.10;5.30;;;;;;;7.36;90.29;100834.69;5445987;26;20006;-61
2024/04/16 01:52:38;;;;;;;18.92;3.92;;;;;;;7.41;90.10;100838.44;5410861;26;20018;-60
2024/04/16 01:55:06;;;;;;;26.27;4.03;;;;;;;7.42;90.28;100838.13;5447188;26;20640;-60
2024/04/16 01:57:35;;;;;;;12.07;2.08;;;;;;;7.43;90.20;100848.00;5444527;26;20003;-60
2024/04/16 02:00:04;;;;;;;14.65;2.90;;;;;;;7.45;90.69;100847.69;5446293;26;20011;-59
2024/04/16 02:02:35;;;;;;;22.30;2.25;;;;;;;7.47;90.54;100857.25;5445303;26;20039;-61
2024/04/16 02:05:06;;;;;;;7.78;1.95;;;;;;;7.48;90.36;100852.53;5446567;26;20329;-60
2024/04/16 02:07:33;;;;;;;17.35;2.20;;;;;;;7.47;90.51;100846.22;5444962;26;20014;-59
2024/04/16 02:10:01;;;;;;;10.68;1.95;;;;;;;7.49;90.41;100848.66;5463338;26;20014;-59
2024/04/16 02:12:28;;;;;;;9.38;1.85;;;;;;;7.48;90.83;100853.38;5450701;26;20018;-56
2024/04/16 02:14:56;;;;;;;11.82;2.17;;;;;;;7.49;90.61;100849.47;5444559;26;20010;-59
2024/04/16 02:17:24;;;;;;;12.70;2.58;;;;;;;7.49;90.56;100846.72;5399427;26;20009;-56
2024/04/16 02:19:52;;;;;;;16.20;3.08;;;;;;;7.48;90.84;100847.84;5445988;26;20007;-58
2024/04/16 02:22:19;;;;;;;11.75;2.53;;;;;;;7.46;91.00;100855.63;5384505;26;20008;-61
2024/04/16 02:24:47;;;;;;;9.98;2.30;;;;;;;7.44;91.13;100857.88;5445780;26;20003;-57
2024/04/16 02:27:14;;;;;;;13.63;2.33;;;;;;;7.41;91.30;100864.06;5444138;26;20030;-58
2024/04/16 02:29:42;;;;;;;9.48;1.70;;;;;;;7.36;91.30;100855.91;5350381;26;20022;-59
2024/04/16 02:32:09;;;;;;;7.97;2.00;;;;;;;7.34;91.33;100853.50;5409615;26;20014;-58
2024/04/16 02:34:37;;;;;;;13.75;3.10;;;;;;;7.32;91.40;100855.75;5413911;26;20017;-59
2024/04/16 02:37:04;;;;;;;18.85;2.40;;;;;;;7.32;91.41;100849.44;5445179;26;20847;-60
2024/04/16 02:39:32;;;;;;;8.27;2.13;;;;;;;7.34;91.34;100860.94;5445919;26;20056;-60
2024/04/16 02:41:59;;;;;;;13.85;1.80;;;;;;;7.35;91.37;100855.13;5414372;26;20072;-60
2024/04/16 02:44:26;;;;;;;8.32;2.60;;;;;;;7.34;91.40;100859.00;5445783;26;20002;-58
2024/04/16 02:46:54;;;;;;;13.32;2.13;;;;;;;7.34;91.49;100858.19;5445173;26;20039;-60
2024/04/16 02:49:21;;;;;;;8.40;1.73;;;;;;;7.31;91.32;100845.88;5444079;26;20003;-60
2024/04/16 02:51:49;;;;;;;10.05;2.00;;;;;;;7.29;91.46;100844.56;5442275;26;20014;-59
2024/04/16 02:54:16;;;;;;;8.48;1.83;;;;;;;7.25;91.61;100844.38;5444229;26;20534;-57
2024/04/16 02:56:43;;;;;;;10.20;2.80;;;;;;;7.22;91.62;100849.75;5444554;26;20422;-61
2024/04/16 02:59:11;;;;;;;8.60;1.98;;;;;;;7.19;91.50;100853.94;5445410;26;20039;-60
2024/04/16 03:01:38;;;;;;;11.85;1.55;;;;;;;7.16;91.97;100840.00;5536880;21;20010;-59
2024/04/16 03:04:06;;;;;;;6.13;1.38;;;;;;;7.15;91.73;100850.19;5443873;26;20003;-59
2024/04/16 03:06:33;;;;;;;10.00;2.75;;;;;;;7.11;91.71;100851.97;5413019;26;20013;-60
2024/04/16 03:09:01;;;;;;;16.05;4.28;;;;;;;7.10;91.91;100852.28;5415630;26;20035;-62
2024/04/16 03:11:29;;;;;;;10.95;1.48;;;;;;;7.09;91.94;100854.25;5465757;26;20083;-62
2024/04/16 03:13:56;;;;;;;9.50;1.75;;;;;;;7.11;91.92;100853.91;5444118;26;20084;-62
2024/04/16 03:16:23;;;;;;;7.28;1.25;;;;;;;7.14;92.43;100856.84;5444251;26;20002;-62
2024/04/16 03:18:51;;;;;;;11.18;4.22;;;;;;;7.16;92.01;100862.84;5445049;26;20007;-62
2024/04/16 03:21:18;;;;;;;11.95;2.35;;;;;;;7.19;91.77;100853.13;5445066;26;20079;-62
2024/04/16 03:23:49;;;;;;;8.48;1.50;;;;;;;7.22;91.89;100856.06;5444373;26;20014;-62
2024/04/16 03:26:16;;;;;;;7.70;1.83;;;;;;;7.24;92.23;100858.50;5412908;26;20002;-62
2024/04/16 03:28:44;;;;;;;5.65;1.58;;;;;;;7.25;92.09;100852.66;5443836;26;20003;-62
2024/04/16 03:31:11;;;;;;;3.92;1.10;;;;;;;7.26;92.19;100853.47;5432518;26;20019;-62
2024/04/16 03:33:39;;;;;;;10.68;1.58;;;;;;;7.29;92.33;100872.94;5456281;26;20060;-62
2024/04/16 03:36:06;;;;;;;6.55;1.67;;;;;;;7.31;92.17;100862.41;5413551;26;20014;-62
2024/04/16 03:38:34;;;;;;;10.77;1.45;;;;;;;7.32;91.88;100871.47;5413280;26;20003;-62
2024/04/16 03:41:01;;;;;;;10.05;1.45;;;;;;;7.34;92.31;100869.19;5443987;26;20072;-62
2024/04/16 03:43:29;;;;;;;10.80;3.83;;;;;;;7.35;92.28;100868.09;5444732;26;20003;-62
2024/04/16 03:45:59;;;;;;;13.73;1.92;;;;;;;7.33;92.16;100862.09;5443555;26;20019;-62
2024/04/16 03:48:27;;;;;;;14.95;2.60;;;;;;;7.32;92.25;100866.78;5444791;26;20003;-62
2024/04/16 03:50:54;;;;;;;8.02;1.90;;;;;;;7.30;92.45;100862.72;5412562;26;20051;-62
2024/04/16 03:53:22;;;;;;;12.43;2.60;;;;;;;7.27;92.53;100864.19;5444254;26;20054;-62
2024/04/16 03:55:49;;;;;;;5.28;1.27;;;;;;;7.24;92.30;100869.50;5442566;26;20080;-62
2024/04/16 03:58:17;;;;;;;11.40;1.70;;;;;;;7.21;92.27;100873.72;5444475;26;20007;-63
2024/04/16 04:01:00;;;;;;;7.57;1.92;;;;;;;7.20;92.49;100879.56;5442680;26;20003;-62
2024/04/16 04:03:32;;;;;;;10.25;2.15;;;;;;;7.17;92.68;100880.19;5443982;26;20366;-62
2024/04/16 04:06:01;;;;;;;11.57;1.58;;;;;;;7.13;92.82;100874.50;5444497;26;20018;-62
2024/04/16 04:08:28;;;;;;;4.45;1.85;;;;;;;7.11;92.74;100871.25;5443586;26;20007;-62
2024/04/16 04:10:55;;;;;;;4.68;1.40;;;;;;;7.10;92.91;100879.81;5445088;26;20804;-62
2024/04/16 04:13:23;;;;;;;9.25;1.63;;;;;;;7.07;92.82;100886.00;5443535;26;20007;-62
2024/04/16 04:15:51;;;;;;;6.90;1.50;;;;;;;7.03;93.00;100872.03;5413070;26;20058;-62
2024/04/16 04:18:18;;;;;;;10.65;1.98;;;;;;;7.00;93.17;100875.41;5415828;26;20022;-62
2024/04/16 04:20:49;;;;;;;8.15;1.33;;;;;;;6.97;93.06;100881.56;5447286;26;20083;-62
2024/04/16 04:23:16;;;;;;;6.80;1.25;;;;;;;6.96;92.86;100879.13;5447249;26;20010;-62
2024/04/16 04:25:44;;;;;;;9.88;2.38;;;;;;;6.93;92.98;100880.59;5446972;26;20362;-62
2024/04/16 04:28:12;;;;;;;24.77;2.78;;;;;;;6.91;92.96;100877.31;5447537;26;19999;-62
2024/04/16 04:30:39;;;;;;;7.22;1.35;;;;;;;6.88;93.23;100882.66;5446212;26;20003;-62
2024/04/16 04:33:10;;;;;;;8.57;1.50;;;;;;;6.85;93.18;100889.63;5446940;26;20027;-61
2024/04/16 04:35:37;;;;;;;6.80;1.63;;;;;;;6.83;93.38;100885.56;5415810;26;20003;-62
2024/04/16 04:38:05;;;;;;;8.13;1.50;;;;;;;6.81;93.19;100893.28;5416434;26;20003;-62
2024/04/16 04:40:34;;;;;;;10.57;4.20;;;;;;;6.79;93.38;100890.88;5446765;26;20039;-62
2024/04/16 04:43:02;;;;;;;9.63;1.92;;;;;;;6.80;93.53;100899.94;5447612;26;20533;-62
2024/04/16 04:45:29;;;;;;;9.05;1.63;;;;;;;6.82;93.65;100895.75;5448424;26;20011;-62
2024/04/16 04:47:57;;;;;;;7.90;1.45;;;;;;;6.86;93.48;100904.19;5417204;26;20038;-62
2024/04/16 04:50:24;;;;;;;9.05;1.95;;;;;;;6.88;93.42;100894.50;5448012;26;20011;-62
2024/04/16 04:52:52;;;;;;;5.22;1.25;;;;;;;6.88;93.74;100902.75;5447750;26;20348;-62
2024/04/16 04:55:19;;;;;;;7.78;1.52;;;;;;;6.88;93.56;100899.16;5417427;26;20021;-62
2024/04/16 04:57:47;;;;;;;5.05;1.15;;;;;;;6.89;93.41;100911.78;5416183;26;20014;-62
2024/04/16 05:00:14;;;;;;;4.40;1.20;;;;;;;6.90;93.85;100907.91;5416266;26;20007;-62
2024/04/16 05:02:43;;;;;;;3.30;0.93;;;;;;;6.92;93.61;100905.66;5448266;26;20034;-62
2024/04/16 05:05:10;;;;;;;7.82;0.98;;;;;;;6.96;93.66;100920.44;5448601;26;20031;-62
2024/04/16 05:07:38;;;;;;;2.88;0.98;;;;;;;7.00;93.86;100924.16;5447565;26;20460;-61
2024/04/16 05:10:06;;;;;;;5.75;0.80;;;;;;;7.02;93.64;100921.88;5435200;26;20006;-62
2024/04/16 05:12:34;;;;;;;7.40;2.83;;;;;;;7.02;93.69;100921.88;5462164;26;20010;-62
2024/04/16 05:15:02;;;;;;;6.32;1.05;;;;;;;7.04;93.75;100914.16;5446511;26;20003;-62
2024/04/16 05:17:29;;;;;;;6.68;1.20;;;;;;;7.06;93.67;100925.66;5446225;26;20333;-62
2024/04/16 05:19:57;;;;;;;5.72;0.80;;;;;;;7.08;93.69;100934.38;5446796;26;20009;-61
2024/04/16 05:22:24;;;;;;;6.47;1.38;;;;;;;7.11;93.39;100931.81;5415111;26;20046;-62
2024/04/16 05:24:52;;;;;;;8.15;1.17;;;;;;;7.12;93.54;100936.19;5415721;26;20014;-62
2024/04/16 05:27:19;;;;;;;3.63;1.52;;;;;;;7.14;93.51;100944.13;5414850;26;20508;-62
2024/04/16 05:29:46;;;;;;;5.03;2.13;;;;;;;7.13;93.35;100932.31;5446058;26;20003;-62
2024/04/16 05:32:14;;;;;;;2.78;1.00;;;;;;;7.13;93.43;100942.50;5446110;26;20027;-61
2024/04/16 05:34:42;;;;;;;5.40;0.47;;;;;;;7.14;93.50;100938.63;5451575;26;20007;-62
2024/04/16 05:37:10;;;;;;;5.13;1.08;;;;;;;7.13;93.55;100935.06;5446408;26;20043;-62
2024/04/16 05:39:38;;;;;;;7.10;1.05;;;;;;;7.15;93.74;100943.00;5415305;26;20030;-62
2024/04/16 05:42:05;;;;;;;4.68;0.98;;;;;;;7.16;93.74;100939.13;5446596;26;20398;-62
2024/04/16 05:44:33;;;;;;;3.80;0.50;;;;;;;7.17;93.57;100951.78;5415271;26;20013;-62
2024/04/16 05:47:01;;;;;;;5.43;1.15;;;;;;;7.17;93.31;100951.78;5446572;26;20013;-62
2024/04/16 05:49:28;;;;;;;3.63;0.70;;;;;;;7.18;93.81;100947.88;5443493;26;20003;-62
2024/04/16 05:51:57;;;;;;;6.15;1.45;;;;;;;7.19;93.39;100960.53;5446442;26;20079;-62
2024/04/16 05:54:26;;;;;;;3.60;0.93;;;;;;;7.20;93.50;100968.44;5446576;26;20053;-62
2024/04/16 05:56:58;;;;;;;1.15;0.60;;;;;;;7.17;93.40;100966.34;5446180;26;20019;-62
2024/04/16 05:59:26;;;;;;;4.95;0.80;;;;;;;7.18;93.72;100969.91;5414042;26;20013;-62
2024/04/16 06:01:53;;;;;;;1.45;0.45;;;;;;;7.20;93.56;100962.16;5445235;26;20003;-62
2024/04/16 06:04:21;;;;;;;3.08;0.50;;;;;;;7.25;93.38;100968.31;5446160;26;20013;-62
2024/04/16 06:06:49;;;;;;;0.85;0.17;;;;;;;7.29;93.60;100972.06;5446499;26;20038;-61
2024/04/16 06:09:16;;;;;;;1.65;0.50;;;;;;;7.33;93.29;100966.75;5452010;26;20146;-61
2024/04/16 06:11:43;;;;;;;1.45;0.70;;;;;;;7.38;93.53;100980.38;5421615;26;20098;-62
2024/04/16 06:14:11;;;;;;;3.38;0.63;;;;;;;7.39;93.47;100975.69;5414860;26;20002;-62
2024/04/16 06:16:38;;;;;;;1.83;0.40;;;;;;;7.39;93.58;100965.44;5414141;26;20021;-62
2024/04/16 06:19:05;;;;;;;5.97;0.65;;;;;;;7.42;93.40;100981.34;5445557;26;20080;-62
2024/04/16 06:21:33;;;;;;;6.80;0.47;;;;;;;7.47;93.61;100980.38;5444195;26;20003;-62
2024/04/16 06:24:00;;;;;;;5.15;0.55;;;;;;;7.52;93.94;100978.28;5445995;26;20017;-62
2024/04/16 06:26:29;;;;;;;2.28;0.50;;;;;;;7.59;93.45;100975.09;5417985;26;20385;-62
2024/04/16 06:28:57;;;;;;;3.97;0.80;;;;;;;7.63;93.45;100976.88;5414780;26;20029;-62
2024/04/16 06:31:24;;;;;;;4.07;2.05;;;;;;;7.67;93.48;100972.38;5445750;26;20036;-62
2024/04/16 06:33:51;;;;;;;3.85;0.52;;;;;;;7.68;93.12;100975.91;5446587;26;20003;-62
2024/04/16 06:36:20;;;;;;;2.45;0.30;;;;;;;7.64;93.10;100973.00;5444943;26;20395;-62
2024/04/16 06:38:47;;;;;;;1.40;0.47;;;;;;;7.60;93.27;100974.75;5443278;26;20003;-61
2024/04/16 06:41:15;;;;;;;0.45;0.30;;;;;;;7.59;93.43;100983.34;5444255;26;20003;-62
2024/04/16 06:43:42;;;;;;;2.90;0.43;;;;;;;7.60;93.44;100988.53;5444545;26;20003;-62
2024/04/16 06:46:10;;;;;;;5.85;0.50;;;;;;;7.62;92.87;100994.56;5414687;26;20021;-61
2024/04/16 06:48:37;;;;;;;1.90;0.30;;;;;;;7.64;93.22;100997.81;5445298;26;20079;-62
2024/04/16 06:51:06;;;;;;;3.10;0.50;;;;;;;7.62;93.07;100997.31;5445829;26;20339;-62
2024/04/16 06:53:36;;;;;;;1.40;0.38;;;;;;;7.60;93.24;100990.50;5446814;26;20027;-62
2024/04/16 06:56:06;;;;;;;1.52;0.95;;;;;;;7.61;93.20;100995.69;5463978;26;20393;-62
2024/04/16 06:58:33;;;;;;;4.88;0.70;;;;;;;7.68;93.37;101007.03;5467620;26;20017;-62
2024/04/16 07:01:02;;;;;;;7.22;0.57;;;;;;;7.72;93.37;101007.22;5474017;26;20010;-59
2024/04/16 07:03:30;;;;;;;1.58;0.60;;;;;;;7.77;92.85;101009.81;5445400;26;20407;-59
2024/04/16 07:05:57;;;;;;;3.45;0.60;;;;;;;7.84;93.14;101015.66;5446248;26;20006;-59
2024/04/16 07:08:26;;;;;;;1.98;0.50;;;;;;;7.94;93.03;101021.69;5459238;26;20333;-59
2024/04/16 07:10:54;;;;;;;2.58;0.40;;;;;;;8.05;92.96;101018.66;5475396;26;20055;-57
2024/04/16 07:13:21;;;;;;;2.58;0.43;;;;;;;8.15;93.03;101026.63;5459013;26;20017;-59
2024/04/16 07:15:49;;;;;;;4.30;0.85;;;;;;;8.24;93.04;101017.22;5444194;26;20018;-59
2024/04/16 07:18:16;;;;;;;2.65;0.35;;;;;;;8.33;92.85;101033.81;5444780;26;20019;-56
2024/04/16 07:20:48;;;;;;;2.10;0.88;;;;;;;8.44;92.65;101024.09;5439645;26;20003;-59
2024/04/16 07:23:16;;;;;;;3.63;0.40;;;;;;;8.50;92.75;101037.38;5402978;26;20043;-56
2024/04/16 07:25:44;;;;;;;2.58;0.50;;;;;;;8.55;92.08;101044.72;5441957;26;20007;-59
2024/04/16 07:28:12;;;;;;;0.32;0.30;;;;;;;8.52;92.29;101048.13;5439197;26;20003;-59
2024/04/16 07:30:44;;;;;;;0.98;0.30;;;;;;;8.47;92.39;101054.59;5404391;26;20007;-59
2024/04/16 07:33:15;;;;;;;2.05;0.38;;;;;;;8.47;92.51;101051.03;5453020;26;20467;-57
2024/04/16 07:35:46;;;;;;;2.95;0.30;;;;;;;8.52;92.38;101059.16;5439771;26;20042;-62
2024/04/16 07:38:16;;;;;;;1.38;0.32;;;;;;;8.58;91.99;101057.84;5438965;26;20014;-57
2024/04/16 07:40:54;;;;;;;0.77;0.30;;;;;;;8.68;92.54;101053.97;5420131;26;20008;-59
2024/04/16 07:43:23;;;;;;;2.55;0.38;;;;;;;8.81;92.41;101061.25;5409064;26;20018;-59
2024/04/16 07:45:51;;;;;;;2.08;0.50;;;;;;;8.88;92.13;101056.88;5440894;26;20017;-57
2024/04/16 07:48:18;;;;;;;4.10;0.47;;;;;;;8.95;92.01;101062.69;5453801;26;20815;-59
2024/04/16 07:50:50;;;;;;;7.35;1.20;;;;;;;9.09;92.25;101055.06;5443232;26;20010;-61
2024/04/16 07:53:17;;;;;;;0.30;0.30;;;;;;;9.31;92.58;101061.50;5440975;26;20003;-59
2024/04/16 07:55:45;;;;;;;0.95;0.60;;;;;;;9.53;91.79;101062.06;5446257;26;20305;-61
2024/04/16 07:58:12;;;;;;;1.92;0.55;;;;;;;9.63;91.70;101063.69;5430059;26;20334;-61
2024/04/16 08:00:40;;;;;;;1.52;0.50;;;;;;;9.75;92.01;101064.59;5445656;26;20031;-61
2024/04/16 08:03:08;;;;;;;1.83;0.80;;;;;;;9.91;92.44;101056.56;5397756;26;20008;-60
2024/04/16 08:05:39;;;;;;;3.15;0.45;;;;;;;10.05;92.02;101062.69;5399364;26;20024;-61
2024/04/16 08:08:06;;;;;;;1.33;0.70;;;;;;;10.20;91.88;101070.41;5404014;26;20536;-61
2024/04/16 08:10:42;;;;;;;4.57;0.75;;;;;;;10.28;92.16;101068.75;5400368;26;20015;-56
2024/04/16 08:13:10;;;;;;;1.75;0.73;;;;;;;10.38;92.76;101065.56;5404876;26;20012;-59
2024/04/16 08:15:37;;;;;;;2.00;0.50;;;;;;;10.55;93.35;101084.03;5405431;26;20007;-59
2024/04/16 08:18:05;;;;;;;1.23;0.40;;;;;;;10.81;94.22;101076.34;5405477;26;20821;-61
2024/04/16 08:20:33;;;;;;;1.95;0.50;;;;;;;11.00;94.71;101079.44;5388458;26;20019;-57
2024/04/16 08:23:00;;;;;;;6.78;0.85;;;;;;;11.19;94.98;101076.97;5392807;26;20011;-61
2024/04/16 08:25:27;;;;;;;3.50;0.60;;;;;;;11.45;96.04;101083.06;5404182;26;20035;-57
2024/04/16 08:27:55;;;;;;;4.88;1.08;;;;;;;11.70;96.62;101083.94;5396133;26;20011;-59
2024/04/16 08:30:22;;;;;;;2.35;0.57;;;;;;;11.92;96.92;101089.03;5395255;26;20007;-57
2024/04/16 08:32:49;;;;;;;2.47;0.57;;;;;;;12.23;97.57;101096.00;5396252;26;20527;-59
2024/04/16 08:35:27;;;;;;;2.13;0.63;;;;;;;12.45;97.67;101087.97;5391260;26;20015;-59
2024/04/16 08:37:55;;;;;;;3.88;0.65;;;;;;;12.86;97.69;101086.84;5392933;26;20449;-59
2024/04/16 08:40:24;;;;;;;1.02;0.50;;;;;;;13.32;96.98;101096.53;5376360;26;20008;-59
2024/04/16 08:42:52;;;;;;;1.70;0.68;;;;;;;13.91;95.33;101083.41;5369167;26;20084;-58
2024/04/16 08:45:22;;;;;;;5.35;1.17;;;;;;;14.75;92.78;101089.41;5403407;26;20003;-59
2024/04/16 08:47:53;;;;;;;2.83;1.23;;;;;;;15.55;88.97;101083.91;5387277;26;20016;-59
2024/04/16 08:50:24;;;;;;;2.78;0.90;;;;;;;16.23;85.99;101081.06;5388140;26;20032;-58
2024/04/16 08:52:58;;;;;;;2.03;0.70;;;;;;;16.86;83.31;101080.44;5382043;26;20008;-56
2024/04/16 08:55:32;;;;;;;3.78;1.60;;;;;;;17.19;79.47;101091.63;5394822;26;20016;-59
2024/04/16 08:57:59;;;;;;;3.80;1.00;;;;;;;17.53;77.09;101098.03;5391461;26;20020;-59
2024/04/16 09:00:27;;;;;;;7.45;1.73;;;;;;;17.77;73.71;101099.47;5405715;26;20016;-59
2024/04/16 09:02:54;;;;;;;2.67;0.70;;;;;;;18.08;70.92;101108.19;5438915;26;19999;-58
2024/04/16 09:05:22;;;;;;;1.63;0.80;;;;;;;18.38;68.76;101096.81;5439260;26;20015;-59
2024/04/16 09:07:49;;;;;;;2.88;0.75;;;;;;;18.67;66.88;101112.66;5443734;26;20022;-58
2024/04/16 09:10:21;;;;;;;4.07;0.47;;;;;;;18.64;64.51;101109.81;5442212;26;20014;-60
2024/04/16 09:12:48;;;;;;;2.10;0.80;;;;;;;18.47;63.44;101102.94;5439804;26;20019;-60
2024/04/16 09:15:17;;;;;;;1.02;0.60;;;;;;;18.35;61.37;101110.81;5440417;26;20002;-60
2024/04/16 09:17:53;;;;;;;2.70;0.60;;;;;;;17.58;62.29;101117.28;5438326;26;20006;-60
2024/04/16 09:20:25;;;;;;;6.03;0.80;;;;;;;17.58;61.10;101118.09;5443648;26;20648;-61
2024/04/16 09:22:54;;;;;;;7.32;0.70;;;;;;;18.18;59.32;101124.31;5443704;26;20870;-60
2024/04/16 09:25:23;;;;;;;3.38;0.52;;;;;;;18.61;57.60;101124.66;5441037;26;20011;-60
2024/04/16 09:27:52;;;;;;;1.95;0.65;;;;;;;18.79;55.93;101126.38;5445507;26;20021;-60
2024/04/16 09:30:20;;;;;;;2.97;0.98;;;;;;;18.48;55.39;101124.16;5444565;26;20018;-60
2024/04/16 09:32:58;;;;;;;5.18;1.17;;;;;;;18.65;56.21;101120.66;5445866;26;20007;-60
2024/04/16 09:35:30;;;;;;;1.77;0.63;;;;;;;18.97;53.89;101131.28;5440197;26;20014;-60
2024/04/16 09:38:05;;;;;;;4.70;1.25;;;;;;;18.93;53.78;101138.88;5405142;26;20002;-61
2024/04/16 09:40:33;;;;;;;3.88;1.60;;;;;;;19.07;52.46;101147.34;5401291;26;20003;-60
2024/04/16 09:43:03;;;;;;;3.75;0.73;;;;;;;19.16;50.81;101142.19;5443052;26;20003;-59
2024/04/16 09:45:33;;;;;;;5.05;0.80;;;;;;;19.36;50.58;101135.06;5430802;26;20015;-60
2024/04/16 09:48:01;;;;;;;4.55;0.90;;;;;;;18.40;49.67;101158.91;5431028;26;19999;-58
2024/04/16 09:50:29;;;;;;;3.65;0.73;;;;;;;17.92;51.57;101149.69;5429255;26;20007;-60
2024/04/16 09:53:01;;;;;;;4.15;0.80;;;;;;;18.48;50.64;101138.16;5442589;26;19999;-61
2024/04/16 09:55:31;;;;;;;12.52;1.10;;;;;;;18.74;49.34;101149.16;5444458;26;20350;-60
2024/04/16 09:58:01;;;;;;;3.08;0.60;;;;;;;17.72;49.83;101142.66;5436774;26;20002;-59
2024/04/16 10:00:28;;;;;;;2.70;0.70;;;;;;;16.68;50.85;101140.91;5420707;26;20091;-59
2024/04/16 10:03:00;;;;;;;2.17;0.90;;;;;;;16.70;51.81;101122.56;5439975;26;20068;-60
2024/04/16 10:05:28;;;;;;;3.67;0.73;;;;;;;17.10;50.65;101140.69;5437918;26;20022;-61
2024/04/16 10:07:55;;;;;;;3.42;0.65;;;;;;;17.89;49.36;101130.03;5443033;26;19999;-60
2024/04/16 10:10:23;;;;;;;7.75;1.55;;;;;;;17.68;48.26;101136.22;5441632;26;20034;-60
2024/04/16 10:12:50;;;;;;;1.65;0.50;;;;;;;17.40;48.54;101135.84;5398988;26;20803;-60
2024/04/16 10:15:18;;;;;;;1.40;1.00;;;;;;;17.64;48.77;101135.34;5443332;26;20031;-60
2024/04/16 10:17:51;;;;;;;3.90;0.93;;;;;;;18.24;47.92;101138.75;5443913;26;20629;-59
2024/04/16 10:20:23;;;;;;;5.57;0.77;;;;;;;18.60;46.22;101139.84;5393852;26;20012;-60
2024/04/16 10:22:58;;;;;;;2.00;0.70;;;;;;;18.84;45.99;101148.44;5406765;26;20043;-60
2024/04/16 10:25:35;;;;;;;4.28;1.05;;;;;;;19.04;44.87;101145.31;5443290;26;20025;-60
2024/04/16 10:28:05;;;;;;;4.00;0.80;;;;;;;19.13;44.37;101145.78;5442806;26;19999;-60
2024/04/16 10:30:35;;;;;;;3.05;1.70;;;;;;;18.93;43.91;101152.91;5411122;26;20068;-60
2024/04/16 10:33:04;;;;;;;3.60;0.88;;;;;;;18.56;44.34;101150.25;5382563;26;20002;-62
2024/04/16 10:35:33;;;;;;;5.60;1.02;;;;;;;17.70;44.73;101158.22;5443321;26;20003;-60
2024/04/16 10:38:03;;;;;;;4.45;1.00;;;;;;;17.50;45.77;101158.38;5445288;26;20017;-60
2024/04/16 10:40:34;;;;;;;3.83;0.98;;;;;;;17.83;44.49;101156.78;5396329;26;20007;-60
2024/04/16 10:43:01;;;;;;;7.97;0.98;;;;;;;18.02;44.49;101159.38;5444729;26;20034;-61
2024/04/16 10:45:29;;;;;;;3.10;0.95;;;;;;;18.02;44.16;101167.78;5410542;26;20012;-60
2024/04/16 10:47:58;;;;;;;3.67;0.80;;;;;;;17.60;44.13;101154.13;5441368;26;20468;-60
2024/04/16 10:50:25;;;;;;;2.17;0.75;;;;;;;16.64;45.99;101159.59;5441942;26;20083;-59
2024/04/16 10:52:53;;;;;;;5.68;1.27;;;;;;;15.93;47.43;101166.75;5443294;26;20015;-61
2024/04/16 10:55:21;;;;;;;7.00;1.95;;;;;;;15.44;48.13;101166.56;5449160;26;20013;-60
2024/04/16 10:57:50;;;;;;;10.88;2.35;;;;;;;15.46;48.36;101166.25;5441752;26;20360;-59
2024/04/16 11:00:17;;;;;;;1.65;0.80;;;;;;;15.40;49.07;101153.72;5439710;26;20003;-60
2024/04/16 11:02:46;;;;;;;5.00;0.77;;;;;;;15.42;49.30;101168.09;5431717;26;20014;-60
2024/04/16 11:05:21;;;;;;;3.70;0.77;;;;;;;15.39;49.11;101168.84;5440537;26;20014;-59
2024/04/16 11:07:50;;;;;;;5.97;1.42;;;;;;;15.33;49.62;101159.16;5441974;26;20074;-60
2024/04/16 11:10:17;;;;;;;5.72;0.95;;;;;;;15.03;49.97;101167.28;5445480;26;20014;-61
2024/04/16 11:12:45;;;;;;;4.15;0.88;;;;;;;14.55;50.82;101157.41;5442795;26;20010;-60
2024/04/16 11:15:12;;;;;;;2.63;0.60;;;;;;;14.38;51.61;101158.59;5439532;26;20344;-60
2024/04/16 11:17:42;;;;;;;2.05;0.60;;;;;;;14.35;51.54;101161.31;5436443;26;20072;-60
2024/04/16 11:20:10;;;;;;;6.55;0.88;;;;;;;14.30;52.09;101151.22;5429527;26;20080;-60
2024/04/16 11:22:37;;;;;;;5.15;0.80;;;;;;;14.28;52.14;101152.75;5442216;26;20019;-61
2024/04/16 11:25:15;;;;;;;5.32;0.80;;;;;;;14.14;51.84;101152.41;5446067;26;20017;-60
2024/04/16 11:27:44;;;;;;;4.40;0.82;;;;;;;14.04;52.15;101162.91;5438912;26;20010;-60
2024/04/16 11:30:14;;;;;;;4.72;0.80;;;;;;;14.00;52.65;101161.19;5447774;26;20358;-60
2024/04/16 11:32:44;;;;;;;4.60;1.38;;;;;;;14.09;52.90;101166.56;5421292;26;20049;-59
2024/04/16 11:35:12;;;;;;;4.07;0.80;;;;;;;14.13;53.55;101161.91;5449452;26;20014;-59